Arminto, Wyoming
Current Conditions -  °F | °C
As of 4:53 PM on Friday 24 Oct 2014 (Local Time) from KCPR Reporting Station
Clear Clear  
Wind Chill: 73°   Ceiling: Unl
Heat Index: 73°   Visibility: 10mi
Dew Point: 18°   Wind: 21mph
Humidity: 12%   Direction: 240°WSW
Pressure: 30.08"   Gusts: NA
Location:  43.18°N, 107.26°W
Report Text: KCPR 242253Z 24018KT 10SM CLR 23/M08 A3008 RMK AO2 PK WND 24031/2213 SLP135 T02281078
Loading
Personal Weather Stations






























Interactive Weather Map New forecast layout! Learn more

10-Day Weather Forecast

Advertisements
Track Severe Weather on mobile